createdAt,value
2022-10-01T00:23:32.095Z,46.20
2022-10-01T00:31:55.543Z,47.00
2022-10-01T00:36:03.959Z,47.20
2022-10-01T00:40:12.447Z,44.90
2022-10-01T01:05:07.091Z,46.90
2022-10-01T01:09:16.227Z,48.00
2022-10-01T01:13:29.429Z,41.50
2022-10-01T01:46:59.853Z,51.60
2022-10-01T01:51:08.373Z,46.20
2022-10-01T01:55:16.751Z,38.50
2022-10-01T02:32:55.087Z,48.40
2022-10-01T02:36:56.461Z,42.30
2022-10-01T02:53:34.463Z,47.60
2022-10-01T02:57:45.859Z,48.70
2022-10-01T03:01:54.364Z,43.40
2022-10-01T03:26:48.546Z,43.30
2022-10-01T03:35:11.819Z,41.00
2022-10-01T03:39:20.244Z,50.10
2022-10-01T03:55:39.092Z,41.00
2022-10-01T03:59:42.806Z,44.80
2022-10-01T04:16:10.508Z,44.60
2022-10-01T04:20:18.070Z,47.20
2022-10-01T04:24:27.414Z,36.80
2022-10-01T04:44:21.286Z,32.20
2022-10-01T04:48:08.028Z,35.10
2022-10-01T04:51:38.256Z,35.10
2022-10-01T04:55:19.458Z,33.50
2022-10-01T04:59:22.950Z,38.50
2022-10-01T05:15:31.762Z,48.60
2022-10-01T05:19:24.316Z,48.30
2022-10-01T05:23:34.652Z,59.80
2022-10-01T05:27:43.996Z,41.90
2022-10-01T05:51:24.926Z,43.30
2022-10-01T05:55:33.171Z,39.50
2022-10-01T05:59:42.617Z,47.70
2022-10-01T06:20:25.563Z,46.90
2022-10-01T06:24:33.820Z,42.70
2022-10-01T06:28:42.207Z,50.30
2022-10-01T06:32:34.775Z,50.30
2022-10-01T06:39:50.472Z,38.80
2022-10-01T06:56:05.866Z,40.20
2022-10-01T07:00:13.949Z,39.80
2022-10-01T07:16:20.144Z,34.40
2022-10-01T07:20:28.625Z,47.20
2022-10-01T07:24:27.732Z,43.60
2022-10-01T07:32:53.458Z,36.70
2022-10-01T07:36:27.711Z,33.00
2022-10-01T07:40:36.543Z,45.60
2022-10-01T08:00:35.654Z,42.90
2022-10-01T08:04:42.232Z,45.60
2022-10-01T08:08:49.428Z,41.20
2022-10-01T08:12:47.094Z,41.10
2022-10-01T08:20:52.206Z,42.50
2022-10-01T08:24:57.625Z,41.10
2022-10-01T08:28:59.295Z,34.80
2022-10-01T08:32:42.832Z,33.50
2022-10-01T09:09:43.589Z,82.50
2022-10-01T09:17:52.860Z,30.00
2022-10-01T09:21:42.444Z,33.90
2022-10-01T09:25:23.833Z,30.30
2022-10-01T09:33:10.881Z,34.60
2022-10-01T09:37:00.668Z,27.90
2022-10-01T09:40:38.683Z,28.40
2022-10-01T09:43:50.682Z,32.90
2022-10-01T09:47:41.869Z,25.40
2022-10-01T09:51:41.781Z,34.10
2022-10-01T09:55:16.562Z,31.30
2022-10-01T09:58:33.987Z,27.40
2022-10-01T10:02:18.516Z,30.60
2022-10-01T10:05:42.534Z,27.40
2022-10-01T10:09:22.286Z,28.40
2022-10-01T10:13:25.289Z,29.50
2022-10-01T10:17:37.938Z,29.10
2022-10-01T10:21:49.707Z,31.50
2022-10-01T10:26:00.774Z,30.60
2022-10-01T10:57:13.653Z,30.50
2022-10-01T11:01:24.957Z,32.70
2022-10-01T11:05:18.561Z,29.40
2022-10-01T11:08:27.239Z,28.70
2022-10-01T11:12:00.190Z,27.00
2022-10-01T11:14:36.662Z,28.30
2022-10-01T11:18:13.029Z,31.90
2022-10-01T11:22:09.166Z,25.50
2022-10-01T11:26:16.217Z,25.50
2022-10-01T11:29:56.316Z,25.50
2022-10-01T11:33:17.539Z,23.00
2022-10-01T11:36:27.798Z,26.50
2022-10-01T11:39:53.520Z,19.60
2022-10-01T11:43:02.142Z,20.20
2022-10-01T11:45:57.855Z,17.40
2022-10-01T11:49:22.425Z,15.50
2022-10-01T11:52:57.327Z,21.10
2022-10-01T11:57:04.899Z,21.60
2022-10-01T12:00:25.332Z,20.30
2022-10-01T12:03:46.513Z,20.30
2022-10-01T12:06:59.658Z,20.10
2022-10-01T12:11:21.996Z,18.60
2022-10-01T12:15:39.380Z,15.80
2022-10-01T12:19:59.937Z,16.60
2022-10-01T12:24:17.232Z,15.10
2022-10-01T12:28:39.015Z,11.90
2022-10-01T12:32:48.974Z,14.50
2022-10-01T12:37:14.931Z,14.60
2022-10-01T12:41:37.588Z,18.20
2022-10-01T12:45:37.819Z,15.60
2022-10-01T12:49:44.699Z,18.50
2022-10-01T12:53:53.764Z,15.10
2022-10-01T12:58:29.485Z,18.90
2022-10-01T13:03:01.621Z,14.80
2022-10-01T13:07:21.491Z,17.00
2022-10-01T13:11:44.839Z,19.20
2022-10-01T13:15:56.163Z,16.20
2022-10-01T13:20:31.681Z,20.70
2022-10-01T13:24:57.817Z,19.40
2022-10-01T13:29:09.725Z,22.10
2022-10-01T13:33:30.137Z,19.90
2022-10-01T15:17:01.977Z,22.90
2022-10-01T15:20:52.360Z,15.50
2022-10-01T15:24:41.943Z,20.60
2022-10-01T15:28:36.337Z,18.30
2022-10-01T15:53:30.770Z,25.60
2022-10-01T15:57:39.913Z,23.00
2022-10-01T16:01:50.955Z,23.70
2022-10-01T16:06:06.178Z,26.70
2022-10-01T16:14:29.580Z,20.60
2022-10-01T16:39:06.591Z,10.70
2022-10-01T16:43:14.594Z,12.20
2022-10-01T16:46:45.463Z,10.50
2022-10-01T16:50:20.300Z,13.20
2022-10-01T17:11:12.446Z,14.70
2022-10-01T17:15:20.988Z,13.80
2022-10-01T17:19:29.412Z,14.70
2022-10-01T17:43:05.788Z,13.30
2022-10-01T17:47:06.320Z,14.20
2022-10-01T17:50:45.496Z,12.50
2022-10-01T17:53:51.662Z,12.50
2022-10-01T18:10:09.726Z,13.60
2022-10-01T18:13:46.579Z,11.90
2022-10-01T18:18:30.078Z,12.70
2022-10-01T18:35:00.308Z,8.50
2022-10-01T18:39:23.417Z,8.00
2022-10-01T18:43:58.877Z,8.40
2022-10-01T18:48:22.030Z,8.00
2022-10-01T18:52:41.975Z,6.80
2022-10-01T18:56:52.092Z,6.20
2022-10-01T19:00:24.774Z,7.00
2022-10-01T19:18:00.116Z,9.10
2022-10-01T19:22:14.537Z,5.60
2022-10-01T19:26:32.484Z,7.80
2022-10-01T19:30:51.195Z,6.40
2022-10-01T19:35:20.612Z,6.50
2022-10-01T19:39:38.556Z,8.20
2022-10-01T19:44:02.340Z,9.90
2022-10-01T19:48:19.676Z,7.20
2022-10-01T19:52:33.829Z,8.60
2022-10-01T19:56:42.456Z,8.20
2022-10-01T20:00:55.531Z,8.10
2022-10-01T20:13:58.406Z,8.20
2022-10-01T20:18:09.737Z,7.30
2022-10-01T20:22:17.961Z,6.70
2022-10-01T20:26:35.103Z,12.10
2022-10-01T20:35:20.399Z,8.50
2022-10-01T20:39:34.758Z,8.00
2022-10-01T20:43:46.165Z,12.20
2022-10-01T21:00:50.177Z,9.10
2022-10-01T21:09:23.492Z,9.50
2022-10-01T21:22:06.393Z,12.20
2022-10-01T21:26:19.512Z,12.20
2022-10-01T21:30:40.264Z,13.60
2022-10-01T21:34:58.994Z,9.80
2022-10-01T21:39:31.180Z,10.10
2022-10-01T21:43:56.649Z,10.10
2022-10-01T21:48:26.026Z,12.40
2022-10-01T21:52:39.965Z,10.20
2022-10-01T21:57:06.452Z,10.40
2022-10-01T22:01:20.654Z,12.80
2022-10-01T22:05:34.828Z,9.20
2022-10-01T22:09:37.215Z,9.70
2022-10-01T22:13:45.824Z,10.10
2022-10-01T22:17:56.955Z,9.40
2022-10-01T22:22:05.555Z,8.50
2022-10-01T22:30:31.212Z,8.90
2022-10-01T22:34:47.835Z,9.40
2022-10-01T22:39:01.817Z,10.60
2022-10-01T22:43:15.549Z,9.50
2022-10-01T22:47:37.056Z,9.20
2022-10-01T22:51:48.245Z,10.00
2022-10-01T22:56:02.647Z,9.00
2022-10-01T23:00:29.038Z,8.70
2022-10-01T23:04:38.506Z,8.20
2022-10-01T23:09:01.733Z,8.20
2022-10-01T23:13:00.983Z,9.70
2022-10-01T23:17:06.429Z,7.80
2022-10-01T23:21:27.845Z,10.40
2022-10-01T23:25:47.857Z,7.30
2022-10-01T23:29:55.663Z,6.40
2022-10-01T23:34:14.174Z,9.50
2022-10-01T23:38:14.152Z,7.90
2022-10-01T23:42:22.166Z,7.30
2022-10-01T23:46:48.920Z,7.40
2022-10-01T23:51:06.288Z,7.40
2022-10-01T23:55:29.832Z,6.90
2022-10-01T23:59:32.159Z,7.90
